Time;durP1;ratioP1;P1;durP2;ratioP2;P2;SDS_P1;SDS_P2;PMS_P1;PMS_P2;Temp;Humidity;BMP_temperature;BMP_pressure;BME280_temperature;BME280_humidity;BME280_pressure;Samples;Min_cycle;Max_cycle;Signal;HPM_P1;HPM_P2
2023/04/08 00:02:11;;;;;;;18.08;9.55;;;;;;;3.28;100.00;102343.75;10372058;28;20496;-77
2023/04/08 00:07:11;;;;;;;20.48;10.80;;;;;;;3.21;100.00;102334.56;10369453;28;20042;-77
2023/04/08 00:12:12;;;;;;;14.07;9.35;;;;;;;3.08;100.00;102326.03;10353635;28;20041;-77
2023/04/08 00:17:12;;;;;;;16.10;10.52;;;;;;;3.11;100.00;102339.31;10371457;28;20096;-77
2023/04/08 00:22:12;;;;;;;16.23;11.30;;;;;;;2.99;100.00;102334.19;10329798;28;20026;-77
2023/04/08 00:27:13;;;;;;;18.35;10.27;;;;;;;3.01;100.00;102353.94;10331905;28;20035;-76
2023/04/08 00:32:13;;;;;;;18.55;11.05;;;;;;;2.98;100.00;102358.88;10314876;28;20061;-77
2023/04/08 00:37:14;;;;;;;18.55;11.20;;;;;;;2.93;100.00;102359.34;10338984;28;20050;-77
2023/04/08 00:42:16;;;;;;;21.65;10.00;;;;;;;2.75;100.00;102334.16;10336684;28;20038;-77
2023/04/08 00:47:16;;;;;;;17.98;11.52;;;;;;;2.85;100.00;102353.06;10351924;28;20037;-77
2023/04/08 00:52:17;;;;;;;19.88;11.73;;;;;;;2.72;100.00;102342.66;10340481;28;20058;-77
2023/04/08 00:57:17;;;;;;;23.08;12.73;;;;;;;2.78;100.00;102353.72;10377143;28;20037;-77
2023/04/08 01:02:56;;;;;;;20.17;12.63;;;;;;;2.76;100.00;102361.19;10358838;28;20037;-77
2023/04/08 01:07:56;;;;;;;19.52;12.30;;;;;;;2.64;100.00;102351.63;10374149;28;20045;-77
2023/04/08 01:12:58;;;;;;;28.20;14.50;;;;;;;2.72;100.00;102367.13;10359349;28;20406;-77
2023/04/08 01:17:59;;;;;;;22.30;13.25;;;;;;;2.67;100.00;102358.59;10353056;28;20038;-77
2023/04/08 01:23:00;;;;;;;23.20;13.50;;;;;;;2.68;100.00;102377.47;10319610;28;20037;-77
2023/04/08 01:28:08;;;;;;;23.85;13.23;;;;;;;2.68;100.00;102373.94;10336097;28;20140;-77
2023/04/08 01:33:10;;;;;;;21.75;12.98;;;;;;;2.56;100.00;102355.22;10334800;28;20038;-77
2023/04/08 01:38:17;;;;;;;22.83;13.77;;;;;;;2.57;100.00;102356.91;10318297;28;20058;-77
2023/04/08 01:43:17;;;;;;;23.70;13.88;;;;;;;2.66;100.00;102373.22;10317661;28;20042;-77
2023/04/08 01:48:18;;;;;;;22.08;14.95;;;;;;;2.57;100.00;102356.91;10318324;28;20046;-77
2023/04/08 01:53:18;;;;;;;20.73;13.27;;;;;;;2.63;100.00;102372.56;10301018;28;20035;-77
2023/04/08 01:58:20;;;;;;;26.95;15.73;;;;;;;2.54;100.00;102369.97;10317719;28;20045;-78
2023/04/08 02:03:20;;;;;;;24.67;15.45;;;;;;;2.52;100.00;102356.56;10317908;28;20035;-77
2023/04/08 02:08:21;;;;;;;21.85;14.52;;;;;;;2.66;100.00;102387.69;10317376;28;20042;-77
2023/04/08 02:13:21;;;;;;;26.52;15.80;;;;;;;2.61;100.00;102363.72;10349591;28;20062;-76
2023/04/08 02:18:25;;;;;;;25.75;14.68;;;;;;;2.53;100.00;102362.84;10300713;28;20034;-76
2023/04/08 02:23:28;;;;;;;30.75;17.52;;;;;;;2.65;100.00;102379.69;10301949;28;20502;-77
2023/04/08 02:28:28;;;;;;;26.58;15.25;;;;;;;2.76;100.00;102398.44;10316567;28;20644;-77
2023/04/08 02:33:29;;;;;;;26.02;15.88;;;;;;;2.58;100.00;102347.75;10300127;28;20057;-77
2023/04/08 02:38:30;;;;;;;31.45;16.67;;;;;;;2.85;100.00;102391.97;10315442;28;20046;-77
2023/04/08 02:43:31;;;;;;;29.88;17.08;;;;;;;2.79;100.00;102398.06;10329899;28;20038;-76
2023/04/08 02:48:31;;;;;;;31.92;18.15;;;;;;;2.68;100.00;102391.09;10372472;28;20038;-76
2023/04/08 02:53:32;;;;;;;37.28;19.48;;;;;;;2.69;100.00;102402.81;10355933;28;20041;-76
2023/04/08 02:58:33;;;;;;;29.60;17.05;;;;;;;2.71;100.00;102401.66;10344527;28;20522;-77
2023/04/08 03:03:33;;;;;;;34.22;19.42;;;;;;;2.68;100.00;102406.56;10368546;28;20038;-77
2023/04/08 03:08:33;;;;;;;33.72;18.88;;;;;;;2.71;100.00;102417.09;10355553;28;20045;-77
2023/04/08 03:13:35;;;;;;;33.90;20.15;;;;;;;2.65;100.00;102415.03;10412625;28;20050;-76
2023/04/08 03:18:35;;;;;;;35.97;20.67;;;;;;;2.67;100.00;102429.31;10394772;28;20570;-76
2023/04/08 03:23:35;;;;;;;38.85;20.27;;;;;;;2.65;100.00;102423.19;10412549;28;20073;-76
2023/04/08 03:28:36;;;;;;;42.55;21.80;;;;;;;2.61;100.00;102428.97;10394909;28;20057;-77
2023/04/08 03:33:36;;;;;;;35.00;19.20;;;;;;;2.51;100.00;102420.09;10393997;28;20569;-76
2023/04/08 03:38:37;;;;;;;39.72;19.98;;;;;;;2.38;100.00;102411.53;10395953;28;20037;-77
2023/04/08 03:43:37;;;;;;;38.83;20.70;;;;;;;2.33;100.00;102419.31;10410833;28;20120;-77
2023/04/08 03:48:38;;;;;;;37.53;20.45;;;;;;;2.34;100.00;102421.03;10367327;28;20052;-76
2023/04/08 03:53:39;;;;;;;41.95;21.33;;;;;;;2.34;100.00;102429.19;10368945;28;20046;-76
2023/04/08 03:58:39;;;;;;;40.00;21.33;;;;;;;2.21;100.00;102414.16;10353217;28;20079;-77
2023/04/08 04:03:40;;;;;;;35.47;20.20;;;;;;;2.15;100.00;102428.41;10352710;28;20041;-76
2023/04/08 04:08:41;;;;;;;43.97;21.75;;;;;;;2.11;100.00;102428.84;10356403;28;20300;-77
2023/04/08 04:13:41;;;;;;;43.78;22.30;;;;;;;2.03;100.00;102418.81;10376212;28;20108;-70
2023/04/08 04:18:42;;;;;;;46.67;23.88;;;;;;;2.13;100.00;102433.13;10345480;28;20042;-76
2023/04/08 04:23:42;;;;;;;46.90;23.13;;;;;;;2.16;100.00;102445.53;10383385;28;20045;-76
2023/04/08 04:28:43;;;;;;;43.13;21.98;;;;;;;2.22;100.00;102444.91;10377313;28;20029;-76
2023/04/08 04:33:44;;;;;;;45.15;22.35;;;;;;;2.31;100.00;102448.50;10377856;28;20057;-77
2023/04/08 04:38:44;;;;;;;51.40;23.90;;;;;;;2.26;100.00;102450.88;10344052;28;20026;-76
2023/04/08 04:43:45;;;;;;;43.80;21.13;;;;;;;2.31;100.00;102440.38;10378418;28;20034;-73
2023/04/08 04:48:46;;;;;;;51.63;23.83;;;;;;;2.43;100.00;102439.06;10381712;28;20069;-76
2023/04/08 04:53:48;;;;;;;48.58;24.13;;;;;;;2.66;100.00;102446.66;10381778;28;20099;-77
2023/04/08 04:58:48;;;;;;;46.97;24.48;;;;;;;2.63;100.00;102436.97;10417025;28;20084;-77
2023/04/08 05:03:49;;;;;;;50.85;25.50;;;;;;;2.78;100.00;102451.63;10397977;28;20037;-77
2023/04/08 05:08:50;;;;;;;47.40;24.75;;;;;;;3.01;100.00;102473.66;10418103;28;20044;-76
2023/04/08 05:13:51;;;;;;;52.05;24.60;;;;;;;3.22;100.00;102484.09;10400390;28;20041;-77
2023/04/08 05:18:51;;;;;;;46.53;24.65;;;;;;;3.29;100.00;102469.78;10383536;28;20057;-78
2023/04/08 05:23:52;;;;;;;46.08;24.80;;;;;;;3.52;100.00;102487.22;10359955;28;20108;-78
2023/04/08 05:28:53;;;;;;;51.58;25.83;;;;;;;3.32;100.00;102429.50;10358649;28;20073;-77
2023/04/08 05:33:53;;;;;;;43.67;22.30;;;;;;;3.67;100.00;102484.66;10376351;28;20100;-77
2023/04/08 05:38:54;;;;;;;38.72;21.58;;;;;;;3.89;100.00;102494.06;10357598;28;20037;-77
2023/04/08 05:43:55;;;;;;;41.42;22.90;;;;;;;4.01;100.00;102500.00;10385249;28;20064;-77
2023/04/08 05:48:55;;;;;;;38.13;21.58;;;;;;;4.13;100.00;102512.25;10381423;28;20061;-77
2023/04/08 05:53:56;;;;;;;40.40;20.83;;;;;;;4.21;100.00;102508.69;10379799;28;20088;-77
2023/04/08 05:58:56;;;;;;;34.25;19.88;;;;;;;4.29;100.00;102516.00;10398157;28;20041;-75
2023/04/08 06:03:57;;;;;;;34.00;20.85;;;;;;;4.25;100.00;102499.97;10379518;28;20509;-76
2023/04/08 06:08:57;;;;;;;34.28;20.13;;;;;;;4.47;100.00;102516.66;10397608;28;20041;-77
2023/04/08 06:13:58;;;;;;;31.98;18.73;;;;;;;4.69;100.00;102516.94;10415317;28;20083;-79
2023/04/08 06:18:58;;;;;;;26.90;18.05;;;;;;;4.89;100.00;102518.22;10388206;28;20037;-78
2023/04/08 06:23:59;;;;;;;29.35;17.13;;;;;;;5.21;100.00;102522.72;10393126;28;20045;-79
2023/04/08 06:29:00;;;;;;;24.48;15.90;;;;;;;5.33;100.00;102500.44;10340620;28;20042;-78
2023/04/08 06:34:01;;;;;;;25.35;16.75;;;;;;;5.55;100.00;102524.22;10371104;28;20034;-78
2023/04/08 06:39:02;;;;;;;25.83;15.95;;;;;;;5.58;100.00;102501.13;10372878;28;20041;-78
2023/04/08 06:44:02;;;;;;;28.02;17.48;;;;;;;5.32;100.00;102452.34;10341271;28;20041;-77
2023/04/08 06:49:05;;;;;;;25.10;15.43;;;;;;;5.75;100.00;102512.81;10409824;28;20042;-78
2023/04/08 06:54:06;;;;;;;24.95;15.48;;;;;;;5.93;100.00;102535.22;10396384;28;20042;-78
2023/04/08 06:59:06;;;;;;;26.70;17.15;;;;;;;6.02;100.00;102530.59;10362110;28;20041;-78
2023/04/08 07:04:07;;;;;;;28.02;17.42;;;;;;;6.06;100.00;102549.16;10395067;28;20038;-77
2023/04/08 07:09:07;;;;;;;27.88;17.17;;;;;;;6.16;100.00;102548.06;10414162;28;20029;-79
2023/04/08 07:14:08;;;;;;;26.25;16.15;;;;;;;6.04;100.00;102514.84;10396928;28;20061;-78
2023/04/08 07:19:08;;;;;;;24.27;15.38;;;;;;;6.29;100.00;102540.09;10394943;28;20121;-78
2023/04/08 07:24:09;;;;;;;26.60;15.38;;;;;;;6.34;100.00;102550.47;10395074;28;20063;-79
2023/04/08 07:29:09;;;;;;;21.75;13.85;;;;;;;6.36;100.00;102559.34;10344738;28;20059;-79
2023/04/08 07:34:10;;;;;;;19.45;12.27;;;;;;;6.22;100.00;102550.94;10373857;28;20382;-78
2023/04/08 07:39:10;;;;;;;19.67;12.40;;;;;;;6.23;100.00;102555.34;10406938;28;20037;-78
2023/04/08 07:44:11;;;;;;;17.48;11.90;;;;;;;5.98;100.00;102534.72;10373203;28;20034;-77
2023/04/08 07:49:11;;;;;;;18.88;12.23;;;;;;;6.02;100.00;102552.47;10369690;28;20042;-77
2023/04/08 07:54:16;;;;;;;21.63;12.45;;;;;;;6.18;100.00;102566.00;10389890;28;20038;-77
2023/04/08 07:59:16;;;;;;;22.88;12.65;;;;;;;6.31;100.00;102578.22;10384868;28;20472;-77
2023/04/08 08:04:17;;;;;;;19.58;12.30;;;;;;;6.60;100.00;102566.47;10358912;28;20034;-77
2023/04/08 08:09:17;;;;;;;19.90;12.35;;;;;;;6.80;100.00;102574.97;10384380;28;20053;-77
2023/04/08 08:14:18;;;;;;;15.98;10.63;;;;;;;6.77;100.00;102562.50;10373972;28;20061;-77
2023/04/08 08:19:19;;;;;;;18.83;11.77;;;;;;;6.93;100.00;102588.03;10410030;28;20038;-77
2023/04/08 08:24:19;;;;;;;15.25;10.15;;;;;;;6.96;100.00;102577.53;10376098;28;20113;-77
2023/04/08 08:29:20;;;;;;;14.82;9.32;;;;;;;6.99;100.00;102592.75;10385348;28;20413;-77
2023/04/08 08:34:20;;;;;;;16.10;9.13;;;;;;;7.07;100.00;102593.50;10410417;28;20401;-77
2023/04/08 08:39:21;;;;;;;13.90;8.68;;;;;;;7.15;100.00;102595.31;10382243;28;20521;-77
2023/04/08 08:44:22;;;;;;;18.08;10.88;;;;;;;7.29;100.00;102585.34;10411802;28;20064;-75
2023/04/08 08:49:22;;;;;;;13.68;9.52;;;;;;;7.08;100.00;102543.16;10375151;28;20691;-75
2023/04/08 08:54:23;;;;;;;17.67;10.55;;;;;;;7.60;100.00;102581.53;10412548;28;20030;-77
2023/04/08 08:59:24;;;;;;;15.95;9.80;;;;;;;7.86;100.00;102587.31;10411431;28;20038;-74
2023/04/08 09:04:25;;;;;;;17.23;10.63;;;;;;;8.02;100.00;102599.94;10385692;28;20040;-75
2023/04/08 09:09:26;;;;;;;13.45;9.38;;;;;;;8.25;100.00;102593.41;10343183;28;20050;-75
2023/04/08 09:14:26;;;;;;;15.25;10.38;;;;;;;8.52;100.00;102583.56;10377517;28;20524;-75
2023/04/08 09:19:26;;;;;;;17.75;10.82;;;;;;;8.75;100.00;102585.19;10393526;28;20041;-75
2023/04/08 09:24:28;;;;;;;18.02;11.23;;;;;;;8.80;100.00;102585.44;10415710;28;20036;-75
2023/04/08 09:29:29;;;;;;;19.13;11.52;;;;;;;8.80;100.00;102568.97;10383219;28;20064;-75
2023/04/08 09:34:32;;;;;;;20.13;11.98;;;;;;;8.98;100.00;102598.66;10416485;28;20033;-75
2023/04/08 09:39:33;;;;;;;18.17;11.85;;;;;;;9.10;100.00;102608.03;10416073;28;20112;-75
2023/04/08 09:44:33;;;;;;;18.58;11.23;;;;;;;9.22;100.00;102602.81;10416891;28;20030;-78
2023/04/08 09:49:39;;;;;;;18.13;12.10;;;;;;;9.50;100.00;102606.34;10398189;28;20045;-72
2023/04/08 09:54:50;;;;;;;21.15;11.35;;;;;;;9.36;100.00;102582.56;10397494;28;20037;-75
2023/04/08 10:00:00;;;;;;;20.92;12.25;;;;;;;9.18;100.00;102599.63;10399294;28;20527;-74
2023/04/08 10:05:02;;;;;;;23.30;13.43;;;;;;;9.13;100.00;102604.03;10398317;28;20037;-74
2023/04/08 10:10:03;;;;;;;27.05;14.65;;;;;;;8.89;100.00;102604.31;10374201;28;20085;-74
2023/04/08 10:15:25;;;;;;;22.35;13.07;;;;;;;9.04;100.00;102620.69;10362741;28;20093;-75
2023/04/08 10:20:34;;;;;;;38.15;14.40;;;;;;;8.96;100.00;102617.25;10404050;28;20038;-75
2023/04/08 10:25:35;;;;;;;28.63;16.15;;;;;;;9.04;100.00;102615.19;10392027;28;20056;-75
2023/04/08 10:30:40;;;;;;;29.77;15.38;;;;;;;9.12;100.00;102605.09;10374098;28;20535;-74
2023/04/08 10:35:44;;;;;;;28.27;17.05;;;;;;;9.18;100.00;102596.03;10361694;28;20038;-75
2023/04/08 10:40:46;;;;;;;32.05;18.35;;;;;;;9.36;100.00;102617.47;10355549;28;20034;-76
2023/04/08 10:45:50;;;;;;;31.23;18.67;;;;;;;9.25;100.00;102602.41;10369271;28;20564;-74
2023/04/08 10:50:56;;;;;;;30.67;19.05;;;;;;;9.29;100.00;102607.28;10355951;28;20484;-72
2023/04/08 10:56:14;;;;;;;36.67;18.65;;;;;;;9.32;100.00;102594.19;10372365;28;20129;-70
2023/04/08 11:01:14;;;;;;;28.77;16.10;;;;;;;9.25;100.00;102616.16;10395157;28;20435;-70
2023/04/08 11:06:16;;;;;;;28.50;16.50;;;;;;;9.21;100.00;102612.13;10393584;28;20037;-70
2023/04/08 11:11:17;;;;;;;32.58;16.52;;;;;;;9.21;100.00;102618.44;10386001;28;20038;-70
2023/04/08 11:16:18;;;;;;;33.55;20.17;;;;;;;9.31;100.00;102604.34;10393862;28;20401;-70
2023/04/08 11:21:19;;;;;;;34.22;19.48;;;;;;;9.30;100.00;102616.38;10394115;28;20101;-69
2023/04/08 11:26:19;;;;;;;41.78;23.15;;;;;;;9.28;100.00;102615.72;10409918;28;20080;-69
2023/04/08 11:31:21;;;;;;;39.25;23.33;;;;;;;9.21;100.00;102601.13;10378436;28;20040;-69
2023/04/08 11:36:21;;;;;;;39.35;21.90;;;;;;;9.36;100.00;102607.31;10377234;28;20101;-69
2023/04/08 11:41:22;;;;;;;36.60;21.00;;;;;;;9.37;100.00;102592.53;10412438;28;20025;-70
2023/04/08 11:46:23;;;;;;;34.20;20.15;;;;;;;9.49;100.00;102599.16;10384134;28;20049;-70
2023/04/08 11:51:23;;;;;;;34.63;19.08;;;;;;;9.49;100.00;102593.66;10372337;28;20490;-70
2023/04/08 11:56:24;;;;;;;30.83;18.77;;;;;;;9.62;100.00;102600.25;10354457;28;20299;-70
2023/04/08 12:01:25;;;;;;;33.08;19.75;;;;;;;9.87;100.00;102615.16;10370973;28;20056;-68
2023/04/08 12:06:27;;;;;;;32.83;20.08;;;;;;;9.89;100.00;102610.28;10353320;28;20068;-70
2023/04/08 12:11:27;;;;;;;33.92;22.17;;;;;;;9.98;100.00;102610.94;10343104;28;20037;-70
2023/04/08 12:16:28;;;;;;;35.95;22.98;;;;;;;10.20;100.00;102614.38;10369851;28;20042;-70
2023/04/08 12:21:28;;;;;;;33.50;22.63;;;;;;;10.31;100.00;102610.19;10370352;28;20089;-70
2023/04/08 12:26:29;;;;;;;37.92;23.58;;;;;;;10.23;100.00;102597.47;10338052;28;20409;-69
2023/04/08 12:31:30;;;;;;;40.53;25.55;;;;;;;9.82;100.00;102548.91;10390255;28;20034;-70
2023/04/08 12:36:31;;;;;;;44.50;28.15;;;;;;;10.36;100.00;102604.06;10396184;28;20041;-70
2023/04/08 12:41:32;;;;;;;43.70;30.30;;;;;;;10.64;100.00;102593.66;10411356;28;20036;-69
2023/04/08 12:46:32;;;;;;;47.08;30.92;;;;;;;10.76;100.00;102595.78;10402152;28;25205;-70
2023/04/08 12:51:33;;;;;;;49.78;32.42;;;;;;;11.01;100.00;102596.81;10383669;28;20040;-70
2023/04/08 12:56:34;;;;;;;48.20;31.75;;;;;;;11.06;100.00;102594.25;10401000;28;20033;-69
2023/04/08 13:01:34;;;;;;;49.00;32.95;;;;;;;11.30;100.00;102580.81;10402149;28;20034;-70
2023/04/08 13:06:35;;;;;;;55.67;35.63;;;;;;;11.40;100.00;102586.72;10417550;28;20065;-70
2023/04/08 13:11:35;;;;;;;65.03;39.10;;;;;;;11.37;100.00;102575.28;10384377;28;20041;-70
2023/04/08 13:16:37;;;;;;;64.25;39.25;;;;;;;11.50;100.00;102581.59;10382988;28;20050;-70
2023/04/08 13:21:38;;;;;;;62.75;40.95;;;;;;;11.61;100.00;102584.72;10358701;28;20070;-70
2023/04/08 13:26:38;;;;;;;63.38;40.60;;;;;;;11.71;100.00;102579.59;10359776;28;20047;-70
2023/04/08 13:31:39;;;;;;;65.78;44.13;;;;;;;11.86;100.00;102569.09;10377777;28;20065;-70
2023/04/08 13:36:40;;;;;;;69.63;47.00;;;;;;;12.03;100.00;102571.34;10359227;28;20034;-70
2023/04/08 13:41:40;;;;;;;66.93;45.80;;;;;;;12.12;100.00;102567.28;10359543;28;20242;-71
2023/04/08 13:46:41;;;;;;;68.75;46.55;;;;;;;12.54;100.00;102564.81;10416646;28;20037;-67
2023/04/08 13:51:41;;;;;;;66.07;44.60;;;;;;;12.19;100.00;102512.00;10416764;28;21545;-71
2023/04/08 13:56:42;;;;;;;59.33;41.92;;;;;;;12.54;100.00;102558.44;10370090;28;20065;-70
2023/04/08 14:01:42;;;;;;;61.10;43.25;;;;;;;12.60;100.00;102563.88;10376362;28;20038;-71
2023/04/08 14:06:43;;;;;;;61.17;41.35;;;;;;;13.03;100.00;102562.19;10374326;28;20072;-70
2023/04/08 14:11:43;;;;;;;55.53;39.95;;;;;;;13.31;100.00;102545.06;10391688;28;20041;-71
2023/04/08 14:16:44;;;;;;;52.38;38.38;;;;;;;13.75;100.00;102553.25;10415443;28;20046;-71
2023/04/08 14:21:44;;;;;;;52.53;37.15;;;;;;;14.58;100.00;102541.28;10416463;28;20029;-72
2023/04/08 14:26:45;;;;;;;55.35;37.85;;;;;;;15.21;100.00;102527.69;10416474;28;20064;-70
2023/04/08 14:31:45;;;;;;;55.40;39.22;;;;;;;15.01;100.00;102526.19;10415247;28;20551;-74
2023/04/08 14:36:46;;;;;;;53.20;39.78;;;;;;;14.06;100.00;102536.38;10415225;28;20060;-73
2023/04/08 14:41:46;;;;;;;57.97;40.60;;;;;;;13.70;100.00;102529.03;10415714;28;20048;-74
2023/04/08 14:46:47;;;;;;;57.38;41.40;;;;;;;14.31;100.00;102529.78;10415324;28;20087;-74
2023/04/08 14:51:47;;;;;;;56.65;41.58;;;;;;;14.53;100.00;102522.59;10414641;28;20120;-74
2023/04/08 14:56:48;;;;;;;54.67;39.90;;;;;;;14.86;100.00;102525.84;10413093;28;20044;-74
2023/04/08 15:01:48;;;;;;;55.63;40.33;;;;;;;14.70;100.00;102511.63;10389882;28;20069;-74
2023/04/08 15:06:49;;;;;;;54.10;37.97;;;;;;;14.17;100.00;102481.22;10384515;28;20038;-74
2023/04/08 15:11:49;;;;;;;55.38;37.60;;;;;;;14.15;100.00;102525.78;10395137;28;20044;-74
2023/04/08 15:16:50;;;;;;;52.05;39.35;;;;;;;14.04;100.00;102529.38;10413417;28;20038;-74
2023/04/08 15:21:50;;;;;;;53.45;38.38;;;;;;;14.02;100.00;102523.25;10411559;28;20048;-74
2023/04/08 15:26:51;;;;;;;50.28;35.67;;;;;;;13.93;100.00;102520.81;10361394;28;20042;-69
2023/04/08 15:31:51;;;;;;;48.90;34.97;;;;;;;14.12;100.00;102516.03;10395195;28;20037;-74
2023/04/08 15:36:52;;;;;;;51.10;36.00;;;;;;;13.82;100.00;102493.91;10394903;28;20035;-73
2023/04/08 15:41:52;;;;;;;52.35;36.47;;;;;;;13.71;100.00;102514.13;10394108;28;20038;-75
2023/04/08 15:46:53;;;;;;;51.58;36.58;;;;;;;13.80;100.00;102521.00;10412203;28;20049;-75
2023/04/08 15:51:53;;;;;;;48.33;34.65;;;;;;;13.67;100.00;102519.28;10411906;28;20037;-75
2023/04/08 15:56:54;;;;;;;51.22;34.58;;;;;;;13.49;100.00;102522.91;10379034;28;20103;-74
2023/04/08 16:01:54;;;;;;;45.17;32.25;;;;;;;13.32;100.00;102527.41;10394373;28;20405;-75
2023/04/08 16:06:55;;;;;;;52.13;34.08;;;;;;;13.05;100.00;102543.47;10411923;28;20084;-75
2023/04/08 16:11:55;;;;;;;49.92;35.22;;;;;;;12.58;100.00;102548.63;10377093;28;20045;-74
2023/04/08 16:16:56;;;;;;;48.80;33.33;;;;;;;12.18;100.00;102519.44;10410115;28;20045;-72
2023/04/08 16:21:57;;;;;;;45.63;31.67;;;;;;;12.03;100.00;102554.78;10410284;28;20046;-75
2023/04/08 16:26:57;;;;;;;44.08;31.65;;;;;;;11.80;100.00;102545.16;10412845;28;20034;-75
2023/04/08 16:31:58;;;;;;;38.13;27.63;;;;;;;11.63;100.00;102547.56;10411414;28;20029;-74
2023/04/08 16:36:58;;;;;;;39.78;27.58;;;;;;;11.67;100.00;102559.03;10406086;28;20125;-75
2023/04/08 16:41:59;;;;;;;48.42;33.33;;;;;;;11.60;100.00;102560.97;10361797;28;20065;-75
2023/04/08 16:46:59;;;;;;;56.15;38.55;;;;;;;11.59;100.00;102559.28;10375969;28;20060;-75
2023/04/08 16:52:00;;;;;;;53.50;37.35;;;;;;;11.54;100.00;102553.59;10393495;28;20056;-75
2023/04/08 16:57:00;;;;;;;48.83;34.17;;;;;;;11.48;100.00;102564.41;10412222;28;20030;-74
2023/04/08 17:02:01;;;;;;;48.65;33.25;;;;;;;11.39;100.00;102567.63;10411403;28;20040;-74
2023/04/08 17:07:02;;;;;;;51.35;35.10;;;;;;;11.26;100.00;102566.63;10407681;28;20037;-75
2023/04/08 17:12:02;;;;;;;54.28;34.42;;;;;;;10.86;100.00;102513.53;10402712;28;20044;-75
2023/04/08 17:17:03;;;;;;;52.03;34.03;;;;;;;11.09;100.00;102557.16;10414757;28;20037;-75
2023/04/08 17:22:03;;;;;;;53.35;35.83;;;;;;;10.98;100.00;102566.09;10400672;28;20033;-75
2023/04/08 17:27:04;;;;;;;58.00;37.78;;;;;;;10.89;100.00;102573.72;10418161;28;20041;-75
2023/04/08 17:32:05;;;;;;;65.10;40.63;;;;;;;10.87;100.00;102581.34;10399438;28;20049;-75
2023/04/08 17:37:06;;;;;;;62.15;39.83;;;;;;;10.72;100.00;102561.47;10417238;28;20064;-73
2023/04/08 17:42:07;;;;;;;67.40;43.13;;;;;;;10.75;100.00;102594.09;10399166;28;20037;-74
2023/04/08 17:47:07;;;;;;;63.38;40.78;;;;;;;10.58;100.00;102580.75;10367848;28;20105;-75
2023/04/08 17:52:08;;;;;;;69.40;44.15;;;;;;;10.48;100.00;102570.19;10397358;28;20041;-75
2023/04/08 17:57:08;;;;;;;64.90;42.53;;;;;;;10.37;100.00;102576.31;10416247;28;20053;-75
2023/04/08 18:02:09;;;;;;;73.05;43.88;;;;;;;10.30;100.00;102590.06;10416269;28;20037;-74
2023/04/08 18:07:09;;;;;;;76.25;46.03;;;;;;;10.30;100.00;102590.06;10415231;28;20451;-75
2023/04/08 18:12:10;;;;;;;68.60;43.47;;;;;;;10.07;100.00;102590.44;10414513;28;20029;-75
2023/04/08 18:17:10;;;;;;;73.93;46.30;;;;;;;10.19;100.00;102609.94;10415205;28;20037;-75
2023/04/08 18:22:11;;;;;;;70.05;45.80;;;;;;;10.07;100.00;102595.94;10415536;28;20422;-75
2023/04/08 18:27:11;;;;;;;78.97;47.63;;;;;;;10.08;100.00;102610.53;10415760;28;20046;-75
2023/04/08 18:32:12;;;;;;;72.32;44.70;;;;;;;10.02;100.00;102611.38;10414527;28;20529;-76
2023/04/08 18:37:15;;;;;;;67.60;42.83;;;;;;;9.98;100.00;102626.59;10413969;28;20029;-75
2023/04/08 18:42:16;;;;;;;64.15;41.40;;;;;;;9.96;100.00;102631.47;10414749;28;20043;-75
2023/04/08 18:47:17;;;;;;;69.53;42.13;;;;;;;9.88;100.00;102625.09;10412599;28;20037;-75
2023/04/08 18:52:18;;;;;;;66.25;42.97;;;;;;;9.87;100.00;102637.16;10396690;28;20030;-75
2023/04/08 18:57:19;;;;;;;62.55;40.83;;;;;;;9.80;100.00;102625.28;10414923;28;20041;-75
2023/04/08 19:02:20;;;;;;;57.63;37.50;;;;;;;9.83;100.00;102644.13;10412738;28;20029;-74
2023/04/08 19:07:22;;;;;;;54.05;35.63;;;;;;;9.67;100.00;102634.34;10413027;28;20045;-74
2023/04/08 19:12:22;;;;;;;59.63;34.47;;;;;;;9.70;100.00;102644.09;10412136;28;20041;-74
2023/04/08 19:17:22;;;;;;;57.70;35.90;;;;;;;9.57;100.00;102635.75;10396035;28;20042;-75
2023/04/08 19:22:23;;;;;;;53.55;33.53;;;;;;;9.61;100.00;102643.41;10395910;28;20481;-75
2023/04/08 19:27:24;;;;;;;54.20;33.80;;;;;;;9.59;100.00;102652.91;10400287;28;20072;-75
2023/04/08 19:32:25;;;;;;;57.63;33.30;;;;;;;9.53;100.00;102650.97;10411547;28;20026;-75
2023/04/08 19:37:26;;;;;;;60.65;36.15;;;;;;;9.37;100.00;102636.53;10410066;28;20041;-75
2023/04/08 19:42:26;;;;;;;58.17;37.88;;;;;;;9.39;100.00;102650.91;10394781;28;20045;-75
2023/04/08 19:47:27;;;;;;;56.30;36.20;;;;;;;9.34;100.00;102642.41;10411872;28;20102;-75
2023/04/08 19:52:27;;;;;;;58.10;35.42;;;;;;;9.34;100.00;102658.91;10411485;28;20043;-74
2023/04/08 19:57:28;;;;;;;56.88;35.88;;;;;;;9.22;100.00;102633.03;10394662;28;20083;-74
2023/04/08 20:02:29;;;;;;;53.85;33.65;;;;;;;8.22;100.00;102495.03;10411797;28;20121;-75
2023/04/08 20:07:29;;;;;;;56.40;35.65;;;;;;;9.28;100.00;102659.72;10410772;28;20041;-74
2023/04/08 20:12:30;;;;;;;57.83;35.67;;;;;;;9.22;100.00;102663.25;10411852;28;20204;-75
2023/04/08 20:17:31;;;;;;;61.50;36.35;;;;;;;9.12;100.00;102660.06;10393074;28;20037;-75
2023/04/08 20:22:31;;;;;;;62.95;37.33;;;;;;;9.16;100.00;102670.44;10411301;28;20044;-74
2023/04/08 20:27:32;;;;;;;65.30;39.13;;;;;;;9.05;100.00;102662.72;10405882;28;20052;-75
2023/04/08 20:32:33;;;;;;;70.55;39.97;;;;;;;9.04;100.00;102675.63;10368016;28;20044;-75
2023/04/08 20:37:34;;;;;;;74.93;41.75;;;;;;;9.00;100.00;102679.81;10406599;28;20045;-75
2023/04/08 20:42:35;;;;;;;73.28;41.80;;;;;;;8.92;100.00;102677.22;10411567;28;20325;-75
2023/04/08 20:47:35;;;;;;;73.68;40.90;;;;;;;8.91;100.00;102688.41;10390786;28;20052;-74
2023/04/08 20:52:36;;;;;;;66.35;39.50;;;;;;;8.82;100.00;102676.72;10407719;28;20045;-74
2023/04/08 20:57:37;;;;;;;67.15;42.63;;;;;;;8.74;100.00;102669.47;10414399;28;20045;-75
2023/04/08 21:02:38;;;;;;;68.90;40.15;;;;;;;8.80;100.00;102684.31;10406810;28;20530;-74
2023/04/08 21:07:43;;;;;;;73.03;41.83;;;;;;;8.80;100.00;102700.78;10407129;28;20045;-75
2023/04/08 21:12:46;;;;;;;73.97;43.67;;;;;;;8.59;100.00;102669.53;10398694;28;20034;-75
2023/04/08 21:17:46;;;;;;;75.70;43.03;;;;;;;8.52;100.00;102674.13;10386796;28;20041;-74
2023/04/08 21:22:47;;;;;;;73.18;42.95;;;;;;;8.64;100.00;102697.28;10395723;28;20410;-75
2023/04/08 21:27:47;;;;;;;76.22;42.70;;;;;;;8.62;100.00;102702.09;10385736;28;20033;-75
2023/04/08 21:32:48;;;;;;;89.28;45.20;;;;;;;8.52;100.00;102700.75;10358745;28;20026;-75
2023/04/08 21:37:49;;;;;;;93.32;48.92;;;;;;;8.42;100.00;102703.81;10375622;28;20041;-73
2023/04/08 21:42:49;;;;;;;93.00;48.58;;;;;;;8.32;100.00;102697.75;10376423;28;20528;-74
2023/04/08 21:47:50;;;;;;;91.53;50.35;;;;;;;8.24;100.00;102696.81;10358562;28;20042;-71
2023/04/08 21:52:50;;;;;;;100.93;50.00;;;;;;;8.20;100.00;102706.47;10386237;28;20038;-74
2023/04/08 21:57:51;;;;;;;101.25;50.05;;;;;;;8.09;100.00;102696.03;10361785;28;20037;-75
2023/04/08 22:02:51;;;;;;;108.03;51.17;;;;;;;8.10;100.00;102705.94;10374739;28;20037;-75
2023/04/08 22:07:52;;;;;;;103.43;48.45;;;;;;;8.04;100.00;102695.72;10378515;28;20057;-74
2023/04/08 22:12:53;;;;;;;108.00;50.67;;;;;;;8.03;100.00;102705.88;10357545;28;20045;-74
2023/04/08 22:17:53;;;;;;;99.75;50.63;;;;;;;7.98;100.00;102710.22;10373855;28;20069;-73
2023/04/08 22:22:54;;;;;;;102.65;50.45;;;;;;;7.83;100.00;102688.31;10382761;28;20436;-73
2023/04/08 22:27:55;;;;;;;93.80;49.88;;;;;;;7.96;100.00;102706.81;10415396;28;20068;-73